Aviation Digital Data Service (ADDS)

Output produced by TAFs form (0916 UTC 22 July 2014)
found at http://www.aviationweather.gov/adds/tafs/
 
KMDT 220602Z 2206/2306 VRB03KT P6SM BKN040 
     FM220900 VRB03KT 5SM BR SCT010 BKN020 
     FM221500 17005KT P6SM SCT025 BKN050 
     FM230300 18004KT P6SM SCT050